createdAt,value
2022-11-25T00:01:16.784Z,13.32
2022-11-25T00:03:44.053Z,11.30
2022-11-25T00:06:10.908Z,13.60
2022-11-25T00:08:37.728Z,13.88
2022-11-25T00:11:04.944Z,11.85
2022-11-25T00:13:32.262Z,9.07
2022-11-25T00:16:03.110Z,9.48
2022-11-25T00:18:30.064Z,11.23
2022-11-25T00:20:56.766Z,10.07
2022-11-25T00:23:23.346Z,13.60
2022-11-25T00:25:50.072Z,13.38
2022-11-25T00:28:18.414Z,13.43
2022-11-25T00:30:45.382Z,12.95
2022-11-25T00:33:11.939Z,12.23
2022-11-25T00:35:38.567Z,11.55
2022-11-25T00:38:05.110Z,11.70
2022-11-25T00:40:31.709Z,13.88
2022-11-25T00:43:16.855Z,11.38
2022-11-25T00:45:43.448Z,10.20
2022-11-25T00:48:10.019Z,10.27
2022-11-25T00:50:36.624Z,10.48
2022-11-25T00:53:03.192Z,11.00
2022-11-25T00:55:49.747Z,10.95
2022-11-25T00:58:16.329Z,12.70
2022-11-25T01:00:42.957Z,11.70
2022-11-25T01:03:10.940Z,11.93
2022-11-25T01:05:37.572Z,8.80
2022-11-25T01:08:04.294Z,9.35
2022-11-25T01:10:30.906Z,10.02
2022-11-25T01:12:57.497Z,15.85
2022-11-25T01:15:24.097Z,8.50
2022-11-25T01:17:50.665Z,9.60
2022-11-25T01:20:17.276Z,14.20
2022-11-25T01:22:43.844Z,11.18
2022-11-25T01:25:11.182Z,15.48
2022-11-25T01:27:43.023Z,12.43
2022-11-25T01:30:10.130Z,7.78
2022-11-25T01:32:36.799Z,12.60
2022-11-25T01:35:03.677Z,7.72
2022-11-25T01:37:30.229Z,13.43
2022-11-25T01:39:56.830Z,10.57
2022-11-25T01:42:23.400Z,8.10
2022-11-25T01:45:28.401Z,8.05
2022-11-25T01:47:58.083Z,8.68
2022-11-25T01:50:24.794Z,8.45
2022-11-25T01:52:52.015Z,7.80
2022-11-25T01:55:29.845Z,7.30
2022-11-25T01:58:03.036Z,10.82
2022-11-25T02:02:56.196Z,7.63
2022-11-25T02:05:33.775Z,12.75
2022-11-25T02:08:00.759Z,7.15
2022-11-25T02:10:29.562Z,8.07
2022-11-25T02:12:56.178Z,9.65
2022-11-25T02:15:22.961Z,8.88
2022-11-25T02:17:49.591Z,9.45
2022-11-25T02:20:21.474Z,8.20
2022-11-25T02:23:14.993Z,6.78
2022-11-25T02:25:41.869Z,9.18
2022-11-25T02:28:19.299Z,8.63
2022-11-25T02:30:46.335Z,8.30
2022-11-25T02:33:13.572Z,9.15
2022-11-25T02:36:03.818Z,8.93
2022-11-25T02:38:38.179Z,9.40
2022-11-25T02:41:12.290Z,10.43
2022-11-25T02:43:39.209Z,9.73
2022-11-25T02:46:08.723Z,9.98
2022-11-25T02:49:07.527Z,11.23
2022-11-25T02:51:27.062Z,10.23
2022-11-25T02:53:53.997Z,10.57
2022-11-25T02:56:22.011Z,8.55
2022-11-25T02:58:48.595Z,10.98
2022-11-25T03:01:15.306Z,8.05
2022-11-25T03:03:42.089Z,9.77
2022-11-25T03:06:09.055Z,10.07
2022-11-25T03:08:36.649Z,7.72
2022-11-25T03:11:03.246Z,8.45
2022-11-25T03:13:29.948Z,9.48
2022-11-25T03:15:56.511Z,8.63
2022-11-25T03:18:23.335Z,9.75
2022-11-25T03:20:56.359Z,6.28
2022-11-25T03:23:23.136Z,8.23
2022-11-25T03:25:50.063Z,10.32
2022-11-25T03:28:16.653Z,6.80
2022-11-25T03:30:43.750Z,9.60
2022-11-25T03:33:10.382Z,6.53
2022-11-25T03:35:37.013Z,8.88
2022-11-25T03:38:03.622Z,8.82
2022-11-25T03:40:30.219Z,9.43
2022-11-25T03:42:56.828Z,8.05
2022-11-25T03:45:23.488Z,6.07
2022-11-25T03:47:50.159Z,6.63
2022-11-25T03:50:16.868Z,5.88
2022-11-25T03:52:43.457Z,6.07
2022-11-25T03:55:12.661Z,5.90
2022-11-25T03:57:39.371Z,7.60
2022-11-25T04:00:06.804Z,9.77
2022-11-25T04:02:34.612Z,7.57
2022-11-25T04:05:01.352Z,7.47
2022-11-25T04:07:27.993Z,6.20
2022-11-25T04:09:54.625Z,8.50
2022-11-25T04:12:39.925Z,6.00
2022-11-25T04:15:07.009Z,8.52
2022-11-25T04:17:33.623Z,7.53
2022-11-25T04:20:00.200Z,11.02
2022-11-25T04:22:26.740Z,9.63
2022-11-25T04:24:53.378Z,8.25
2022-11-25T04:27:20.612Z,6.43
2022-11-25T04:29:47.381Z,7.18
2022-11-25T04:32:13.969Z,8.13
2022-11-25T04:34:40.576Z,8.98
2022-11-25T04:37:07.127Z,7.70
2022-11-25T04:39:33.758Z,9.75
2022-11-25T04:42:18.827Z,9.40
2022-11-25T04:45:01.030Z,7.53
2022-11-25T04:47:32.200Z,8.60
2022-11-25T04:49:59.224Z,9.05
2022-11-25T04:52:26.187Z,9.15
2022-11-25T04:54:52.969Z,12.38
2022-11-25T04:57:19.735Z,8.90
2022-11-25T04:59:46.570Z,9.38
2022-11-25T05:02:20.237Z,8.98
2022-11-25T05:04:48.507Z,7.32
2022-11-25T05:07:16.784Z,7.20
2022-11-25T05:09:43.611Z,6.40
2022-11-25T05:12:13.318Z,6.50
2022-11-25T05:14:39.949Z,5.88
2022-11-25T05:17:07.371Z,5.70
2022-11-25T05:19:36.081Z,6.28
2022-11-25T05:22:02.697Z,7.00
2022-11-25T05:24:29.286Z,6.50
2022-11-25T05:26:55.990Z,10.20
2022-11-25T05:29:22.668Z,5.95
2022-11-25T05:31:49.254Z,8.15
2022-11-25T05:34:15.863Z,7.60
2022-11-25T05:36:42.437Z,8.85
2022-11-25T05:39:09.026Z,9.30
2022-11-25T05:41:35.607Z,10.10
2022-11-25T05:44:02.354Z,7.50
2022-11-25T05:46:29.187Z,7.50
2022-11-25T05:48:56.252Z,8.70
2022-11-25T05:51:23.755Z,9.00
2022-11-25T05:53:50.512Z,9.68
2022-11-25T05:56:17.321Z,6.82
2022-11-25T05:58:43.938Z,6.47
2022-11-25T06:01:11.693Z,7.88
2022-11-25T06:03:38.430Z,7.97
2022-11-25T06:06:05.974Z,11.25
2022-11-25T06:08:32.837Z,12.90
2022-11-25T06:10:59.449Z,9.80
2022-11-25T06:13:26.071Z,9.30
2022-11-25T06:15:52.788Z,8.63
2022-11-25T06:18:19.490Z,10.38
2022-11-25T06:20:46.288Z,8.95
2022-11-25T06:23:13.175Z,12.15
2022-11-25T06:25:39.746Z,10.25
2022-11-25T06:28:13.813Z,12.38
2022-11-25T06:30:40.526Z,9.65
2022-11-25T06:33:07.146Z,9.18
2022-11-25T06:35:33.751Z,10.00
2022-11-25T06:38:00.378Z,10.45
2022-11-25T06:40:27.218Z,8.43
2022-11-25T06:42:53.820Z,14.50
2022-11-25T06:45:20.495Z,9.48
2022-11-25T06:47:47.381Z,9.77
2022-11-25T06:50:14.180Z,8.13
2022-11-25T06:52:40.902Z,12.90
2022-11-25T06:55:07.848Z,13.05
2022-11-25T06:57:34.491Z,18.40
2022-11-25T07:00:01.196Z,11.55
2022-11-25T07:02:27.983Z,12.80
2022-11-25T07:04:54.626Z,9.80
2022-11-25T07:07:21.427Z,9.98
2022-11-25T07:09:48.213Z,10.50
2022-11-25T07:12:14.834Z,13.68
2022-11-25T07:14:41.478Z,12.82
2022-11-25T07:17:12.024Z,12.02
2022-11-25T07:19:39.140Z,13.70
2022-11-25T07:22:05.746Z,13.23
2022-11-25T07:24:33.997Z,10.88
2022-11-25T07:27:00.848Z,13.65
2022-11-25T07:32:15.320Z,13.50
2022-11-25T07:34:42.514Z,12.07
2022-11-25T07:37:09.138Z,12.93
2022-11-25T07:39:36.228Z,11.40
2022-11-25T07:42:03.174Z,16.00
2022-11-25T07:44:29.874Z,13.65
2022-11-25T07:46:57.039Z,13.55
2022-11-25T07:49:27.045Z,12.38
2022-11-25T07:51:55.625Z,16.83
2022-11-25T07:54:23.243Z,11.80
2022-11-25T07:56:50.888Z,12.10
2022-11-25T07:59:19.286Z,9.55
2022-11-25T08:01:46.130Z,12.82
2022-11-25T08:04:19.687Z,15.05
2022-11-25T08:06:48.913Z,13.20
2022-11-25T08:09:19.480Z,19.08
2022-11-25T08:11:46.993Z,14.23
2022-11-25T08:14:13.623Z,14.43
2022-11-25T08:16:40.199Z,10.98
2022-11-25T08:19:14.401Z,15.15
2022-11-25T08:21:43.080Z,22.60
2022-11-25T08:24:17.571Z,14.27
2022-11-25T08:26:44.278Z,10.77
2022-11-25T08:29:15.609Z,12.70
2022-11-25T08:31:43.237Z,11.35
2022-11-25T08:34:16.257Z,8.27
2022-11-25T08:36:47.924Z,9.95
2022-11-25T08:39:36.158Z,10.83
2022-11-25T08:42:05.516Z,12.60
2022-11-25T08:44:32.132Z,8.23
2022-11-25T08:47:16.507Z,9.57
2022-11-25T08:49:46.666Z,10.90
2022-11-25T08:52:13.652Z,20.85
2022-11-25T08:54:40.289Z,13.98
2022-11-25T08:57:18.863Z,8.68
2022-11-25T08:59:45.529Z,9.75
2022-11-25T09:02:13.373Z,9.18
2022-11-25T09:04:42.935Z,9.63
2022-11-25T09:07:09.594Z,9.80
2022-11-25T09:09:36.876Z,7.53
2022-11-25T09:12:04.054Z,9.27
2022-11-25T09:14:30.896Z,9.07
2022-11-25T09:16:57.516Z,7.32
2022-11-25T09:19:24.155Z,8.52
2022-11-25T09:21:50.806Z,8.25
2022-11-25T09:24:17.487Z,9.27
2022-11-25T09:26:45.123Z,6.65
2022-11-25T09:29:13.125Z,8.80
2022-11-25T09:31:40.435Z,12.57
2022-11-25T09:34:08.647Z,8.82
2022-11-25T09:36:35.319Z,6.50
2022-11-25T09:39:01.966Z,6.30
2022-11-25T09:42:14.980Z,7.60
2022-11-25T09:45:09.562Z,7.78
2022-11-25T09:47:54.269Z,7.20
2022-11-25T09:50:38.983Z,7.65
2022-11-25T09:53:15.817Z,5.57
2022-11-25T09:55:47.343Z,4.03
2022-11-25T09:58:36.413Z,5.30
2022-11-25T10:01:14.638Z,4.28
2022-11-25T10:03:54.739Z,6.95
2022-11-25T10:06:32.911Z,3.92
2022-11-25T10:09:07.323Z,5.82
2022-11-25T10:11:53.151Z,6.97
2022-11-25T10:14:33.674Z,4.85
2022-11-25T10:17:09.521Z,4.55
2022-11-25T10:19:42.090Z,6.72
2022-11-25T10:22:31.323Z,5.93
2022-11-25T10:25:00.428Z,10.00
2022-11-25T10:28:03.677Z,10.02
2022-11-25T10:30:53.515Z,6.03
2022-11-25T10:33:26.809Z,4.35
2022-11-25T10:35:53.303Z,7.72
2022-11-25T10:38:29.119Z,9.00
2022-11-25T10:40:55.901Z,7.95
2022-11-25T10:43:26.089Z,12.63
2022-11-25T10:46:18.608Z,4.60
2022-11-25T10:49:15.583Z,5.15
2022-11-25T10:51:49.459Z,9.98
2022-11-25T10:54:27.483Z,5.35
2022-11-25T10:56:59.759Z,4.63
2022-11-25T10:59:31.723Z,8.98
2022-11-25T11:02:13.211Z,6.00
2022-11-25T11:05:08.949Z,6.43
2022-11-25T11:07:46.314Z,6.07
2022-11-25T11:10:22.147Z,7.13
2022-11-25T11:13:05.923Z,5.78
2022-11-25T11:15:41.758Z,6.93
2022-11-25T11:18:28.039Z,8.45
2022-11-25T11:20:58.831Z,7.13
2022-11-25T11:23:26.584Z,10.38
2022-11-25T11:26:09.646Z,9.55
2022-11-25T11:28:37.166Z,8.88
2022-11-25T11:31:26.629Z,13.68
2022-11-25T11:33:58.971Z,10.60
2022-11-25T11:36:34.894Z,10.82
2022-11-25T11:39:07.422Z,9.88
2022-11-25T11:41:56.173Z,8.55
2022-11-25T11:44:26.453Z,12.40
2022-11-25T11:47:20.556Z,13.00
2022-11-25T11:49:50.226Z,8.80
2022-11-25T11:52:49.599Z,9.48
2022-11-25T11:55:37.675Z,9.15
2022-11-25T11:58:24.041Z,11.95
2022-11-25T12:01:00.623Z,11.32
2022-11-25T12:03:27.768Z,10.68
2022-11-25T12:05:57.326Z,7.45
2022-11-25T12:08:37.237Z,6.97
2022-11-25T12:11:09.934Z,7.97
2022-11-25T12:14:04.132Z,10.50
2022-11-25T12:16:34.594Z,8.65
2022-11-25T12:19:07.261Z,8.98
2022-11-25T12:21:45.635Z,10.77
2022-11-25T12:24:37.107Z,9.35
2022-11-25T12:27:11.323Z,9.82
2022-11-25T12:29:53.377Z,10.05
2022-11-25T12:32:40.943Z,12.13
2022-11-25T12:35:07.777Z,10.25
2022-11-25T12:38:03.531Z,10.48
2022-11-25T12:40:37.934Z,12.32
2022-11-25T12:43:27.584Z,13.75
2022-11-25T12:46:20.428Z,13.55
2022-11-25T12:48:47.171Z,12.75
2022-11-25T12:51:18.722Z,17.88
2022-11-25T12:54:04.078Z,11.32
2022-11-25T12:56:44.202Z,14.40
2022-11-25T12:59:38.744Z,16.08
2022-11-25T13:02:44.412Z,10.43
2022-11-25T13:08:17.597Z,13.57
2022-11-25T13:10:57.707Z,12.02
2022-11-25T13:13:42.476Z,13.68
2022-11-25T13:16:09.846Z,11.73
2022-11-25T13:18:40.234Z,13.82
2022-11-25T13:21:11.103Z,15.73
2022-11-25T13:23:49.258Z,13.32
2022-11-25T13:26:28.453Z,9.15
2022-11-25T13:28:55.964Z,16.70
2022-11-25T13:31:24.498Z,10.75
2022-11-25T13:34:15.940Z,12.68
2022-11-25T13:36:55.629Z,12.60
2022-11-25T13:39:36.296Z,11.25
2022-11-25T13:42:29.225Z,7.32
2022-11-25T13:44:59.362Z,14.65
2022-11-25T13:47:40.367Z,13.38
2022-11-25T13:50:21.681Z,13.95
2022-11-25T13:53:02.067Z,15.38
2022-11-25T13:55:40.537Z,17.73
2022-11-25T13:58:10.091Z,12.48
2022-11-25T14:00:36.628Z,13.02
2022-11-25T14:03:21.235Z,11.25
2022-11-25T14:06:24.959Z,10.98
2022-11-25T14:08:54.534Z,10.25
2022-11-25T14:11:29.834Z,8.82
2022-11-25T14:14:07.162Z,11.82
2022-11-25T14:16:49.025Z,11.73
2022-11-25T14:19:56.066Z,12.13
2022-11-25T14:22:44.599Z,14.65
2022-11-25T14:25:32.643Z,12.23
2022-11-25T14:28:07.756Z,11.32
2022-11-25T14:30:34.345Z,11.35
2022-11-25T14:33:03.364Z,10.50
2022-11-25T14:35:45.642Z,8.38
2022-11-25T14:38:16.639Z,11.10
2022-11-25T14:41:00.329Z,10.82
2022-11-25T14:43:27.221Z,9.63
2022-11-25T14:46:15.583Z,13.80
2022-11-25T14:48:43.492Z,11.50
2022-11-25T14:51:11.967Z,17.17
2022-11-25T14:53:47.807Z,9.30
2022-11-25T14:56:23.123Z,15.77
2022-11-25T14:58:51.360Z,12.48
2022-11-25T15:01:25.275Z,9.65
2022-11-25T15:04:04.979Z,16.95
2022-11-25T15:06:43.150Z,23.55
2022-11-25T15:09:25.683Z,16.25
2022-11-25T15:12:06.890Z,17.25
2022-11-25T15:14:35.370Z,10.23
2022-11-25T15:17:07.234Z,14.98
2022-11-25T15:19:34.517Z,15.90
2022-11-25T15:22:22.463Z,11.90
2022-11-25T15:24:55.104Z,14.82
2022-11-25T15:27:27.194Z,17.77
2022-11-25T15:29:54.862Z,11.70
2022-11-25T15:32:28.305Z,14.55
2022-11-25T15:34:56.444Z,10.02
2022-11-25T15:37:24.124Z,13.43
2022-11-25T15:39:51.435Z,13.10
2022-11-25T15:42:22.496Z,8.13
2022-11-25T15:45:07.142Z,11.30
2022-11-25T15:47:35.298Z,9.57
2022-11-25T15:50:01.947Z,9.27
2022-11-25T15:52:33.040Z,8.43
2022-11-25T15:55:08.310Z,7.95
2022-11-25T15:57:36.047Z,10.82
2022-11-25T16:00:15.812Z,9.68
2022-11-25T16:02:42.395Z,8.10
2022-11-25T16:05:15.079Z,7.28
2022-11-25T16:07:50.516Z,4.50
2022-11-25T16:10:24.169Z,8.88
2022-11-25T16:13:19.704Z,12.73
2022-11-25T16:15:52.122Z,13.85
2022-11-25T16:18:39.167Z,17.33
2022-11-25T16:21:08.232Z,11.98
2022-11-25T16:23:36.207Z,12.20
2022-11-25T16:26:04.372Z,17.77
2022-11-25T16:28:30.979Z,17.45
2022-11-25T16:30:59.405Z,13.13
2022-11-25T16:33:26.265Z,11.88
2022-11-25T16:35:52.916Z,12.70
2022-11-25T16:38:19.529Z,15.45
2022-11-25T16:40:46.495Z,11.43
2022-11-25T16:43:19.550Z,14.30
2022-11-25T16:48:17.325Z,10.30
2022-11-25T16:50:44.356Z,14.55
2022-11-25T16:53:10.941Z,9.55
2022-11-25T16:55:38.303Z,11.93
2022-11-25T16:58:05.640Z,10.38
2022-11-25T17:00:32.272Z,10.23
2022-11-25T17:02:58.915Z,13.07
2022-11-25T17:05:26.008Z,12.88
2022-11-25T17:07:52.906Z,21.20
2022-11-25T17:10:20.526Z,25.92
2022-11-25T17:12:47.967Z,34.13
2022-11-25T17:15:19.613Z,37.90
2022-11-25T17:17:47.932Z,41.80
2022-11-25T17:20:16.403Z,45.22
2022-11-25T17:22:43.009Z,36.88
2022-11-25T17:25:12.290Z,26.00
2022-11-25T17:27:39.151Z,49.67
2022-11-25T17:30:19.831Z,44.80
2022-11-25T17:32:46.738Z,41.80
2022-11-25T17:35:18.835Z,31.33
2022-11-25T17:37:45.983Z,26.67
2022-11-25T17:40:13.142Z,17.08
2022-11-25T17:42:40.198Z,20.17
2022-11-25T17:45:20.773Z,22.38
2022-11-25T17:47:47.525Z,18.75
2022-11-25T17:50:21.217Z,23.02
2022-11-25T17:52:48.196Z,16.88
2022-11-25T17:55:19.664Z,16.08
2022-11-25T17:57:47.407Z,16.63
2022-11-25T18:00:16.739Z,18.02
2022-11-25T18:02:43.422Z,29.83
2022-11-25T18:05:16.568Z,26.48
2022-11-25T18:10:17.894Z,32.30
2022-11-25T18:12:48.606Z,33.85
2022-11-25T18:15:20.804Z,20.92
2022-11-25T18:17:47.439Z,17.30
2022-11-25T18:20:18.441Z,20.35
2022-11-25T18:22:45.548Z,18.00
2022-11-25T18:25:16.358Z,24.25
2022-11-25T18:27:43.612Z,27.00
2022-11-25T18:30:20.009Z,32.67
2022-11-25T18:32:46.771Z,31.77
2022-11-25T18:35:24.588Z,32.38
2022-11-25T18:37:51.179Z,31.17
2022-11-25T18:40:17.971Z,25.73
2022-11-25T18:42:48.015Z,30.60
2022-11-25T18:45:20.085Z,19.00
2022-11-25T18:47:46.992Z,18.58
2022-11-25T18:50:18.597Z,16.98
2022-11-25T18:52:45.416Z,17.80
2022-11-25T18:55:15.289Z,13.48
2022-11-25T18:57:43.100Z,18.63
2022-11-25T19:00:31.761Z,12.95
2022-11-25T19:02:59.691Z,18.20
2022-11-25T19:05:29.924Z,10.70
2022-11-25T19:07:57.119Z,11.15
2022-11-25T19:10:27.400Z,16.48
2022-11-25T19:13:20.998Z,16.45
2022-11-25T19:18:17.278Z,13.48
2022-11-25T19:20:43.905Z,17.27
2022-11-25T19:23:25.353Z,13.30
2022-11-25T19:25:53.438Z,12.18
2022-11-25T19:28:20.064Z,14.55
2022-11-25T19:30:46.909Z,14.23
2022-11-25T19:33:24.204Z,15.57
2022-11-25T19:35:50.849Z,16.75
2022-11-25T19:38:21.467Z,11.68
2022-11-25T19:40:49.480Z,9.35
2022-11-25T19:43:16.122Z,14.82
2022-11-25T19:45:43.611Z,13.75
2022-11-25T19:48:15.011Z,13.02
2022-11-25T19:50:42.791Z,9.68
2022-11-25T19:53:23.365Z,13.93
2022-11-25T19:55:50.007Z,13.73
2022-11-25T19:58:16.603Z,15.20
2022-11-25T20:00:43.938Z,15.52
2022-11-25T20:03:21.003Z,10.23
2022-11-25T20:05:48.954Z,17.35
2022-11-25T20:08:24.904Z,11.70
2022-11-25T20:10:51.786Z,18.92
2022-11-25T20:13:18.937Z,7.88
2022-11-25T20:15:45.686Z,10.95
2022-11-25T20:18:18.634Z,12.52
2022-11-25T20:23:16.227Z,13.43
2022-11-25T20:25:44.757Z,11.38
2022-11-25T20:28:26.347Z,12.52
2022-11-25T20:30:53.709Z,14.48
2022-11-25T20:33:24.345Z,12.30
2022-11-25T20:35:52.996Z,19.02
2022-11-25T20:38:19.503Z,18.75
2022-11-25T20:40:46.512Z,18.92
2022-11-25T20:43:36.860Z,23.45
2022-11-25T20:46:03.718Z,22.17
2022-11-25T20:48:30.417Z,20.92
2022-11-25T20:51:01.152Z,25.92
2022-11-25T20:53:30.449Z,23.23
2022-11-25T20:55:57.024Z,19.83
2022-11-25T20:58:29.098Z,22.15
2022-11-25T21:00:57.695Z,23.98
2022-11-25T21:03:25.284Z,24.55
2022-11-25T21:05:52.584Z,21.52
2022-11-25T21:08:23.081Z,20.60
2022-11-25T21:10:51.447Z,26.75
2022-11-25T21:13:23.895Z,23.17
2022-11-25T21:15:53.251Z,26.58
2022-11-25T21:18:20.572Z,25.88
2022-11-25T21:20:48.338Z,24.90
2022-11-25T21:23:25.968Z,26.90
2022-11-25T21:25:52.586Z,30.00
2022-11-25T21:28:24.185Z,21.80
2022-11-25T21:30:50.842Z,21.50
2022-11-25T21:33:17.403Z,26.75
2022-11-25T21:35:46.029Z,19.85
2022-11-25T21:38:18.191Z,19.38
2022-11-25T21:40:47.020Z,15.57
2022-11-25T21:43:21.671Z,15.80
2022-11-25T21:45:49.993Z,13.30
2022-11-25T21:48:21.191Z,11.73
2022-11-25T21:50:47.968Z,13.80
2022-11-25T21:53:14.933Z,12.73
2022-11-25T21:55:42.032Z,14.38
2022-11-25T21:58:18.559Z,12.43
2022-11-25T22:00:47.748Z,11.43
2022-11-25T22:03:19.221Z,11.82
2022-11-25T22:05:46.410Z,12.45
2022-11-25T22:08:12.999Z,10.00
2022-11-25T22:10:40.372Z,11.10
2022-11-25T22:13:07.008Z,11.63
2022-11-25T22:15:34.276Z,13.10
2022-11-25T22:18:00.855Z,12.90
2022-11-25T22:20:39.126Z,12.52
2022-11-25T22:23:15.718Z,23.48
2022-11-25T22:25:42.493Z,11.68
2022-11-25T22:28:13.498Z,12.93
2022-11-25T22:30:40.354Z,31.65
2022-11-25T22:33:09.385Z,34.65
2022-11-25T22:35:35.996Z,18.92
2022-11-25T22:38:02.641Z,15.07
2022-11-25T22:40:29.280Z,14.63
2022-11-25T22:42:56.234Z,12.90
2022-11-25T22:45:33.142Z,9.90
2022-11-25T22:48:01.373Z,9.70
2022-11-25T22:50:31.652Z,10.77
2022-11-25T22:52:59.116Z,12.40
2022-11-25T22:55:33.064Z,8.48
2022-11-25T22:58:00.986Z,10.52
2022-11-25T23:00:29.489Z,9.93
2022-11-25T23:02:57.000Z,11.95
2022-11-25T23:05:32.581Z,18.30
2022-11-25T23:08:00.267Z,13.98
2022-11-25T23:10:29.344Z,10.85
2022-11-25T23:12:56.039Z,14.02
2022-11-25T23:15:23.347Z,13.90
2022-11-25T23:17:59.932Z,19.38
2022-11-25T23:20:30.104Z,18.60
2022-11-25T23:22:57.404Z,18.23
2022-11-25T23:25:24.045Z,13.23
2022-11-25T23:27:50.636Z,13.73
2022-11-25T23:30:20.238Z,17.73
2022-11-25T23:32:52.365Z,14.13
2022-11-25T23:35:20.703Z,13.63
2022-11-25T23:37:53.074Z,13.27
2022-11-25T23:40:21.879Z,15.98
2022-11-25T23:42:48.706Z,13.10
2022-11-25T23:45:17.443Z,14.20
2022-11-25T23:47:48.142Z,12.45
2022-11-25T23:50:32.332Z,14.15
2022-11-25T23:53:03.746Z,13.95
2022-11-25T23:55:34.967Z,13.63
2022-11-25T23:58:02.990Z,15.52
